sensor_id;sensor_type;location;lat;lon;timestamp;P1;durP1;ratioP1;P2;durP2;ratioP2
72813;SDS011;60945;48.516;-2.768;2023-09-30T00:01:44;12.40;;;11.50;;
72813;SDS011;60945;48.516;-2.768;2023-09-30T00:04:10;12.73;;;11.63;;
72813;SDS011;60945;48.516;-2.768;2023-09-30T00:06:36;12.43;;;11.38;;
72813;SDS011;60945;48.516;-2.768;2023-09-30T00:09:02;12.63;;;11.43;;
72813;SDS011;60945;48.516;-2.768;2023-09-30T00:11:28;13.50;;;12.18;;
72813;SDS011;60945;48.516;-2.768;2023-09-30T00:13:53;13.02;;;11.60;;
72813;SDS011;60945;48.516;-2.768;2023-09-30T00:16:19;12.63;;;11.63;;
72813;SDS011;60945;48.516;-2.768;2023-09-30T00:18:45;12.40;;;11.50;;
72813;SDS011;60945;48.516;-2.768;2023-09-30T00:21:11;12.68;;;11.80;;
72813;SDS011;60945;48.516;-2.768;2023-09-30T00:23:37;12.15;;;11.00;;
72813;SDS011;60945;48.516;-2.768;2023-09-30T00:26:03;12.35;;;11.25;;
72813;SDS011;60945;48.516;-2.768;2023-09-30T00:28:30;12.15;;;10.90;;
72813;SDS011;60945;48.516;-2.768;2023-09-30T00:30:55;11.35;;;10.55;;
72813;SDS011;60945;48.516;-2.768;2023-09-30T00:33:21;12.68;;;10.80;;
72813;SDS011;60945;48.516;-2.768;2023-09-30T00:35:47;12.45;;;11.45;;
72813;SDS011;60945;48.516;-2.768;2023-09-30T00:38:12;12.77;;;11.32;;
72813;SDS011;60945;48.516;-2.768;2023-09-30T00:40:39;12.25;;;11.00;;
72813;SDS011;60945;48.516;-2.768;2023-09-30T00:43:04;11.93;;;11.20;;
72813;SDS011;60945;48.516;-2.768;2023-09-30T00:45:30;11.93;;;10.85;;
72813;SDS011;60945;48.516;-2.768;2023-09-30T00:47:56;11.85;;;10.95;;
72813;SDS011;60945;48.516;-2.768;2023-09-30T00:50:22;12.80;;;11.52;;
72813;SDS011;60945;48.516;-2.768;2023-09-30T00:52:48;12.48;;;11.40;;
72813;SDS011;60945;48.516;-2.768;2023-09-30T00:55:14;12.15;;;11.13;;
72813;SDS011;60945;48.516;-2.768;2023-09-30T00:57:41;12.60;;;11.88;;
72813;SDS011;60945;48.516;-2.768;2023-09-30T01:00:09;11.93;;;10.82;;
72813;SDS011;60945;48.516;-2.768;2023-09-30T01:02:40;10.85;;;9.88;;
72813;SDS011;60945;48.516;-2.768;2023-09-30T01:05:06;10.85;;;9.85;;
72813;SDS011;60945;48.516;-2.768;2023-09-30T01:07:33;10.60;;;9.73;;
72813;SDS011;60945;48.516;-2.768;2023-09-30T01:09:59;11.68;;;10.40;;
72813;SDS011;60945;48.516;-2.768;2023-09-30T01:12:26;11.32;;;10.40;;
72813;SDS011;60945;48.516;-2.768;2023-09-30T01:14:56;11.68;;;10.20;;
72813;SDS011;60945;48.516;-2.768;2023-09-30T01:17:23;11.98;;;10.25;;
72813;SDS011;60945;48.516;-2.768;2023-09-30T01:19:49;11.32;;;10.35;;
72813;SDS011;60945;48.516;-2.768;2023-09-30T01:22:15;11.77;;;10.80;;
72813;SDS011;60945;48.516;-2.768;2023-09-30T01:24:41;11.18;;;10.38;;
72813;SDS011;60945;48.516;-2.768;2023-09-30T01:27:08;12.80;;;10.52;;
72813;SDS011;60945;48.516;-2.768;2023-09-30T01:29:33;11.02;;;10.02;;
72813;SDS011;60945;48.516;-2.768;2023-09-30T01:32:00;11.52;;;10.48;;
72813;SDS011;60945;48.516;-2.768;2023-09-30T01:34:26;11.73;;;10.80;;
72813;SDS011;60945;48.516;-2.768;2023-09-30T01:36:52;11.38;;;10.50;;
72813;SDS011;60945;48.516;-2.768;2023-09-30T01:39:18;11.57;;;10.57;;
72813;SDS011;60945;48.516;-2.768;2023-09-30T01:41:44;11.13;;;10.27;;
72813;SDS011;60945;48.516;-2.768;2023-09-30T01:44:10;11.70;;;10.50;;
72813;SDS011;60945;48.516;-2.768;2023-09-30T01:46:36;11.70;;;10.75;;
72813;SDS011;60945;48.516;-2.768;2023-09-30T01:49:01;11.90;;;10.93;;
72813;SDS011;60945;48.516;-2.768;2023-09-30T01:51:28;11.88;;;10.77;;
72813;SDS011;60945;48.516;-2.768;2023-09-30T01:53:55;11.50;;;10.55;;
72813;SDS011;60945;48.516;-2.768;2023-09-30T01:56:21;11.82;;;10.65;;
72813;SDS011;60945;48.516;-2.768;2023-09-30T01:58:46;12.38;;;11.25;;
72813;SDS011;60945;48.516;-2.768;2023-09-30T02:01:12;11.15;;;10.32;;
72813;SDS011;60945;48.516;-2.768;2023-09-30T02:03:38;11.13;;;10.25;;
72813;SDS011;60945;48.516;-2.768;2023-09-30T02:06:04;11.40;;;10.70;;
72813;SDS011;60945;48.516;-2.768;2023-09-30T02:08:29;12.18;;;11.07;;
72813;SDS011;60945;48.516;-2.768;2023-09-30T02:10:55;12.50;;;11.57;;
72813;SDS011;60945;48.516;-2.768;2023-09-30T02:13:21;11.52;;;10.52;;
72813;SDS011;60945;48.516;-2.768;2023-09-30T02:15:47;12.25;;;11.20;;
72813;SDS011;60945;48.516;-2.768;2023-09-30T02:18:13;11.88;;;10.77;;
72813;SDS011;60945;48.516;-2.768;2023-09-30T02:20:39;12.38;;;11.38;;
72813;SDS011;60945;48.516;-2.768;2023-09-30T02:23:09;11.82;;;10.93;;
72813;SDS011;60945;48.516;-2.768;2023-09-30T02:25:36;12.20;;;10.82;;
72813;SDS011;60945;48.516;-2.768;2023-09-30T02:28:02;14.85;;;11.65;;
72813;SDS011;60945;48.516;-2.768;2023-09-30T02:30:29;12.23;;;11.23;;
72813;SDS011;60945;48.516;-2.768;2023-09-30T02:32:55;12.35;;;11.25;;
72813;SDS011;60945;48.516;-2.768;2023-09-30T02:35:21;12.80;;;11.77;;
72813;SDS011;60945;48.516;-2.768;2023-09-30T02:37:47;13.35;;;12.25;;
72813;SDS011;60945;48.516;-2.768;2023-09-30T02:40:14;12.85;;;11.75;;
72813;SDS011;60945;48.516;-2.768;2023-09-30T02:42:42;12.55;;;11.63;;
72813;SDS011;60945;48.516;-2.768;2023-09-30T02:45:08;13.18;;;11.98;;
72813;SDS011;60945;48.516;-2.768;2023-09-30T02:47:35;13.48;;;12.10;;
72813;SDS011;60945;48.516;-2.768;2023-09-30T02:50:02;12.75;;;11.55;;
72813;SDS011;60945;48.516;-2.768;2023-09-30T02:52:29;12.60;;;11.45;;
72813;SDS011;60945;48.516;-2.768;2023-09-30T02:54:55;12.50;;;11.57;;
72813;SDS011;60945;48.516;-2.768;2023-09-30T02:57:22;13.30;;;12.15;;
72813;SDS011;60945;48.516;-2.768;2023-09-30T02:59:48;12.85;;;11.50;;
72813;SDS011;60945;48.516;-2.768;2023-09-30T03:02:14;12.20;;;11.18;;
72813;SDS011;60945;48.516;-2.768;2023-09-30T03:04:40;11.90;;;10.93;;
72813;SDS011;60945;48.516;-2.768;2023-09-30T03:07:07;12.60;;;11.32;;
72813;SDS011;60945;48.516;-2.768;2023-09-30T03:09:33;12.23;;;11.00;;
72813;SDS011;60945;48.516;-2.768;2023-09-30T03:11:59;13.82;;;11.23;;
72813;SDS011;60945;48.516;-2.768;2023-09-30T03:14:25;12.95;;;11.75;;
72813;SDS011;60945;48.516;-2.768;2023-09-30T03:16:50;14.45;;;11.88;;
72813;SDS011;60945;48.516;-2.768;2023-09-30T03:19:17;12.82;;;11.68;;
72813;SDS011;60945;48.516;-2.768;2023-09-30T03:21:42;12.80;;;11.52;;
72813;SDS011;60945;48.516;-2.768;2023-09-30T03:24:08;12.90;;;11.77;;
72813;SDS011;60945;48.516;-2.768;2023-09-30T03:26:34;11.73;;;10.82;;
72813;SDS011;60945;48.516;-2.768;2023-09-30T03:29:00;13.25;;;11.88;;
72813;SDS011;60945;48.516;-2.768;2023-09-30T03:31:26;12.30;;;11.27;;
72813;SDS011;60945;48.516;-2.768;2023-09-30T03:33:52;11.90;;;11.05;;
72813;SDS011;60945;48.516;-2.768;2023-09-30T03:36:21;12.07;;;10.73;;
72813;SDS011;60945;48.516;-2.768;2023-09-30T03:38:50;11.98;;;11.02;;
72813;SDS011;60945;48.516;-2.768;2023-09-30T03:41:19;11.98;;;10.38;;
72813;SDS011;60945;48.516;-2.768;2023-09-30T03:43:45;12.07;;;11.02;;
72813;SDS011;60945;48.516;-2.768;2023-09-30T03:46:12;12.27;;;11.18;;
72813;SDS011;60945;48.516;-2.768;2023-09-30T03:48:38;12.40;;;11.30;;
72813;SDS011;60945;48.516;-2.768;2023-09-30T03:51:11;13.82;;;11.32;;
72813;SDS011;60945;48.516;-2.768;2023-09-30T03:53:40;13.02;;;10.88;;
72813;SDS011;60945;48.516;-2.768;2023-09-30T03:56:10;13.00;;;11.82;;
72813;SDS011;60945;48.516;-2.768;2023-09-30T03:58:37;11.80;;;10.82;;
72813;SDS011;60945;48.516;-2.768;2023-09-30T04:01:07;11.48;;;10.57;;
72813;SDS011;60945;48.516;-2.768;2023-09-30T04:03:36;11.50;;;10.35;;
72813;SDS011;60945;48.516;-2.768;2023-09-30T04:06:04;10.38;;;9.40;;
72813;SDS011;60945;48.516;-2.768;2023-09-30T04:08:31;11.27;;;10.13;;
72813;SDS011;60945;48.516;-2.768;2023-09-30T04:10:58;11.00;;;10.13;;
72813;SDS011;60945;48.516;-2.768;2023-09-30T04:13:25;12.73;;;10.10;;
72813;SDS011;60945;48.516;-2.768;2023-09-30T04:15:51;11.10;;;9.80;;
72813;SDS011;60945;48.516;-2.768;2023-09-30T04:18:16;11.02;;;10.02;;
72813;SDS011;60945;48.516;-2.768;2023-09-30T04:20:45;12.35;;;11.10;;
72813;SDS011;60945;48.516;-2.768;2023-09-30T04:23:12;12.18;;;10.35;;
72813;SDS011;60945;48.516;-2.768;2023-09-30T04:25:38;11.50;;;10.60;;
72813;SDS011;60945;48.516;-2.768;2023-09-30T04:28:05;13.07;;;10.05;;
72813;SDS011;60945;48.516;-2.768;2023-09-30T04:30:32;14.48;;;10.15;;
72813;SDS011;60945;48.516;-2.768;2023-09-30T04:32:58;10.65;;;9.57;;
72813;SDS011;60945;48.516;-2.768;2023-09-30T04:35:24;10.18;;;8.95;;
72813;SDS011;60945;48.516;-2.768;2023-09-30T04:37:50;11.00;;;9.27;;
72813;SDS011;60945;48.516;-2.768;2023-09-30T04:40:16;11.60;;;10.20;;
72813;SDS011;60945;48.516;-2.768;2023-09-30T04:42:45;10.35;;;9.30;;
72813;SDS011;60945;48.516;-2.768;2023-09-30T04:45:12;11.48;;;10.23;;
72813;SDS011;60945;48.516;-2.768;2023-09-30T04:47:38;9.77;;;8.98;;
72813;SDS011;60945;48.516;-2.768;2023-09-30T04:50:07;10.35;;;9.45;;
72813;SDS011;60945;48.516;-2.768;2023-09-30T04:52:34;10.07;;;9.05;;
72813;SDS011;60945;48.516;-2.768;2023-09-30T04:55:00;10.68;;;9.07;;
72813;SDS011;60945;48.516;-2.768;2023-09-30T04:57:26;9.32;;;8.43;;
72813;SDS011;60945;48.516;-2.768;2023-09-30T04:59:52;9.43;;;8.45;;
72813;SDS011;60945;48.516;-2.768;2023-09-30T05:02:17;10.27;;;9.38;;
72813;SDS011;60945;48.516;-2.768;2023-09-30T05:04:43;9.40;;;8.57;;
72813;SDS011;60945;48.516;-2.768;2023-09-30T05:07:09;10.15;;;9.20;;
72813;SDS011;60945;48.516;-2.768;2023-09-30T05:09:35;10.85;;;9.77;;
72813;SDS011;60945;48.516;-2.768;2023-09-30T05:12:01;10.32;;;9.43;;
72813;SDS011;60945;48.516;-2.768;2023-09-30T05:14:29;12.60;;;8.55;;
72813;SDS011;60945;48.516;-2.768;2023-09-30T05:16:55;10.55;;;8.27;;
72813;SDS011;60945;48.516;-2.768;2023-09-30T05:19:21;10.35;;;7.80;;
72813;SDS011;60945;48.516;-2.768;2023-09-30T05:21:47;9.60;;;8.70;;
72813;SDS011;60945;48.516;-2.768;2023-09-30T05:24:14;9.85;;;8.95;;
72813;SDS011;60945;48.516;-2.768;2023-09-30T05:26:39;9.18;;;8.38;;
72813;SDS011;60945;48.516;-2.768;2023-09-30T05:29:05;9.43;;;8.55;;
72813;SDS011;60945;48.516;-2.768;2023-09-30T05:31:32;9.40;;;8.00;;
72813;SDS011;60945;48.516;-2.768;2023-09-30T05:33:58;9.15;;;8.23;;
72813;SDS011;60945;48.516;-2.768;2023-09-30T05:36:23;9.15;;;8.23;;
72813;SDS011;60945;48.516;-2.768;2023-09-30T05:38:49;10.02;;;9.02;;
72813;SDS011;60945;48.516;-2.768;2023-09-30T05:41:15;9.02;;;8.13;;
72813;SDS011;60945;48.516;-2.768;2023-09-30T05:43:41;9.43;;;8.57;;
72813;SDS011;60945;48.516;-2.768;2023-09-30T05:46:08;9.40;;;8.15;;
72813;SDS011;60945;48.516;-2.768;2023-09-30T05:48:34;9.80;;;8.73;;
72813;SDS011;60945;48.516;-2.768;2023-09-30T05:51:00;9.65;;;8.77;;
72813;SDS011;60945;48.516;-2.768;2023-09-30T05:53:26;9.85;;;8.95;;
72813;SDS011;60945;48.516;-2.768;2023-09-30T05:55:53;10.30;;;9.30;;
72813;SDS011;60945;48.516;-2.768;2023-09-30T05:58:18;10.57;;;9.15;;
72813;SDS011;60945;48.516;-2.768;2023-09-30T06:00:44;9.57;;;8.57;;
72813;SDS011;60945;48.516;-2.768;2023-09-30T06:03:10;9.93;;;8.98;;
72813;SDS011;60945;48.516;-2.768;2023-09-30T06:05:42;10.77;;;9.80;;
72813;SDS011;60945;48.516;-2.768;2023-09-30T06:08:08;10.18;;;9.27;;
72813;SDS011;60945;48.516;-2.768;2023-09-30T06:10:39;9.68;;;8.88;;
72813;SDS011;60945;48.516;-2.768;2023-09-30T06:13:08;10.00;;;9.10;;
72813;SDS011;60945;48.516;-2.768;2023-09-30T06:15:36;10.18;;;9.20;;
72813;SDS011;60945;48.516;-2.768;2023-09-30T06:18:05;10.18;;;9.20;;
72813;SDS011;60945;48.516;-2.768;2023-09-30T06:20:31;10.55;;;9.43;;
72813;SDS011;60945;48.516;-2.768;2023-09-30T06:22:56;11.60;;;9.40;;
72813;SDS011;60945;48.516;-2.768;2023-09-30T06:25:23;9.98;;;9.07;;
72813;SDS011;60945;48.516;-2.768;2023-09-30T06:27:49;10.00;;;8.88;;
72813;SDS011;60945;48.516;-2.768;2023-09-30T06:30:15;9.63;;;8.82;;
72813;SDS011;60945;48.516;-2.768;2023-09-30T06:32:42;9.63;;;8.75;;
72813;SDS011;60945;48.516;-2.768;2023-09-30T06:35:08;9.45;;;8.75;;
72813;SDS011;60945;48.516;-2.768;2023-09-30T06:37:38;8.90;;;8.20;;
72813;SDS011;60945;48.516;-2.768;2023-09-30T06:40:05;9.73;;;8.77;;
72813;SDS011;60945;48.516;-2.768;2023-09-30T06:42:37;8.95;;;8.25;;
72813;SDS011;60945;48.516;-2.768;2023-09-30T06:45:05;9.63;;;8.80;;
72813;SDS011;60945;48.516;-2.768;2023-09-30T06:47:34;9.95;;;9.10;;
72813;SDS011;60945;48.516;-2.768;2023-09-30T06:50:02;12.25;;;9.20;;
72813;SDS011;60945;48.516;-2.768;2023-09-30T06:52:36;10.05;;;9.02;;
72813;SDS011;60945;48.516;-2.768;2023-09-30T06:55:04;10.32;;;9.38;;
72813;SDS011;60945;48.516;-2.768;2023-09-30T06:57:33;9.90;;;8.93;;
72813;SDS011;60945;48.516;-2.768;2023-09-30T07:00:00;10.95;;;9.02;;
72813;SDS011;60945;48.516;-2.768;2023-09-30T07:02:29;10.10;;;8.82;;
72813;SDS011;60945;48.516;-2.768;2023-09-30T07:04:55;9.73;;;9.02;;
72813;SDS011;60945;48.516;-2.768;2023-09-30T07:07:21;10.98;;;8.85;;
72813;SDS011;60945;48.516;-2.768;2023-09-30T07:09:46;10.02;;;9.02;;
72813;SDS011;60945;48.516;-2.768;2023-09-30T07:12:13;10.40;;;8.63;;
72813;SDS011;60945;48.516;-2.768;2023-09-30T07:14:38;10.07;;;9.07;;
72813;SDS011;60945;48.516;-2.768;2023-09-30T07:17:04;9.30;;;8.50;;
72813;SDS011;60945;48.516;-2.768;2023-09-30T07:19:29;10.73;;;8.98;;
72813;SDS011;60945;48.516;-2.768;2023-09-30T07:21:56;10.30;;;8.82;;
72813;SDS011;60945;48.516;-2.768;2023-09-30T07:24:21;10.02;;;9.00;;
72813;SDS011;60945;48.516;-2.768;2023-09-30T07:26:47;12.00;;;8.73;;
72813;SDS011;60945;48.516;-2.768;2023-09-30T07:29:13;10.18;;;9.18;;
72813;SDS011;60945;48.516;-2.768;2023-09-30T07:31:38;11.05;;;8.90;;
72813;SDS011;60945;48.516;-2.768;2023-09-30T07:34:04;11.38;;;9.13;;
72813;SDS011;60945;48.516;-2.768;2023-09-30T07:36:30;9.38;;;8.68;;
72813;SDS011;60945;48.516;-2.768;2023-09-30T07:38:55;9.55;;;8.65;;
72813;SDS011;60945;48.516;-2.768;2023-09-30T07:41:21;12.50;;;8.98;;
72813;SDS011;60945;48.516;-2.768;2023-09-30T07:43:46;9.25;;;8.35;;
72813;SDS011;60945;48.516;-2.768;2023-09-30T07:46:12;9.40;;;8.50;;
72813;SDS011;60945;48.516;-2.768;2023-09-30T07:48:40;11.95;;;8.98;;
72813;SDS011;60945;48.516;-2.768;2023-09-30T07:51:06;8.50;;;7.70;;
72813;SDS011;60945;48.516;-2.768;2023-09-30T07:53:35;9.20;;;7.90;;
72813;SDS011;60945;48.516;-2.768;2023-09-30T07:56:00;9.30;;;8.40;;
72813;SDS011;60945;48.516;-2.768;2023-09-30T07:58:26;8.70;;;7.47;;
72813;SDS011;60945;48.516;-2.768;2023-09-30T08:00:52;13.73;;;7.80;;
72813;SDS011;60945;48.516;-2.768;2023-09-30T08:03:18;8.60;;;7.72;;
72813;SDS011;60945;48.516;-2.768;2023-09-30T08:05:44;9.00;;;8.13;;
72813;SDS011;60945;48.516;-2.768;2023-09-30T08:08:11;9.57;;;8.50;;
72813;SDS011;60945;48.516;-2.768;2023-09-30T08:10:37;9.57;;;8.35;;
72813;SDS011;60945;48.516;-2.768;2023-09-30T08:13:03;12.95;;;8.40;;
72813;SDS011;60945;48.516;-2.768;2023-09-30T08:15:29;10.15;;;8.23;;
72813;SDS011;60945;48.516;-2.768;2023-09-30T08:17:55;9.70;;;8.40;;
72813;SDS011;60945;48.516;-2.768;2023-09-30T08:20:21;9.68;;;8.38;;
72813;SDS011;60945;48.516;-2.768;2023-09-30T08:22:47;11.35;;;8.90;;
72813;SDS011;60945;48.516;-2.768;2023-09-30T08:25:13;12.27;;;8.77;;
72813;SDS011;60945;48.516;-2.768;2023-09-30T08:27:39;11.68;;;8.75;;
72813;SDS011;60945;48.516;-2.768;2023-09-30T08:30:05;11.45;;;8.63;;
72813;SDS011;60945;48.516;-2.768;2023-09-30T08:32:34;10.13;;;9.15;;
72813;SDS011;60945;48.516;-2.768;2023-09-30T08:35:01;10.35;;;9.10;;
72813;SDS011;60945;48.516;-2.768;2023-09-30T08:37:28;10.27;;;9.18;;
72813;SDS011;60945;48.516;-2.768;2023-09-30T08:39:54;10.15;;;9.18;;
72813;SDS011;60945;48.516;-2.768;2023-09-30T08:42:20;11.27;;;10.10;;
72813;SDS011;60945;48.516;-2.768;2023-09-30T08:44:49;10.77;;;9.52;;
72813;SDS011;60945;48.516;-2.768;2023-09-30T08:47:18;11.07;;;9.98;;
72813;SDS011;60945;48.516;-2.768;2023-09-30T08:49:45;10.45;;;9.45;;
72813;SDS011;60945;48.516;-2.768;2023-09-30T08:52:13;11.18;;;9.98;;
72813;SDS011;60945;48.516;-2.768;2023-09-30T08:54:39;13.07;;;9.82;;
72813;SDS011;60945;48.516;-2.768;2023-09-30T08:57:05;10.98;;;9.98;;
72813;SDS011;60945;48.516;-2.768;2023-09-30T08:59:34;11.45;;;10.32;;
72813;SDS011;60945;48.516;-2.768;2023-09-30T09:02:06;12.68;;;11.05;;
72813;SDS011;60945;48.516;-2.768;2023-09-30T09:04:35;11.55;;;10.45;;
72813;SDS011;60945;48.516;-2.768;2023-09-30T09:07:03;12.10;;;10.90;;
72813;SDS011;60945;48.516;-2.768;2023-09-30T09:09:29;10.93;;;9.93;;
72813;SDS011;60945;48.516;-2.768;2023-09-30T09:11:55;12.40;;;11.30;;
72813;SDS011;60945;48.516;-2.768;2023-09-30T09:14:40;12.80;;;11.50;;
72813;SDS011;60945;48.516;-2.768;2023-09-30T09:17:08;10.85;;;9.95;;
72813;SDS011;60945;48.516;-2.768;2023-09-30T09:19:35;12.55;;;11.35;;
72813;SDS011;60945;48.516;-2.768;2023-09-30T09:22:02;12.35;;;10.77;;
72813;SDS011;60945;48.516;-2.768;2023-09-30T09:24:32;12.77;;;11.57;;
72813;SDS011;60945;48.516;-2.768;2023-09-30T09:27:09;13.57;;;12.18;;
72813;SDS011;60945;48.516;-2.768;2023-09-30T09:29:36;13.15;;;11.15;;
72813;SDS011;60945;48.516;-2.768;2023-09-30T09:32:09;12.55;;;11.25;;
72813;SDS011;60945;48.516;-2.768;2023-09-30T09:34:37;13.45;;;12.07;;
72813;SDS011;60945;48.516;-2.768;2023-09-30T09:37:19;14.27;;;11.95;;
72813;SDS011;60945;48.516;-2.768;2023-09-30T09:39:49;12.23;;;11.13;;
72813;SDS011;60945;48.516;-2.768;2023-09-30T09:42:23;13.45;;;12.32;;
72813;SDS011;60945;48.516;-2.768;2023-09-30T09:45:00;13.32;;;11.93;;
72813;SDS011;60945;48.516;-2.768;2023-09-30T09:47:27;13.80;;;12.50;;
72813;SDS011;60945;48.516;-2.768;2023-09-30T09:49:56;13.10;;;11.93;;
72813;SDS011;60945;48.516;-2.768;2023-09-30T09:52:23;14.27;;;12.98;;
72813;SDS011;60945;48.516;-2.768;2023-09-30T09:54:50;13.68;;;12.48;;
72813;SDS011;60945;48.516;-2.768;2023-09-30T09:57:17;14.38;;;13.00;;
72813;SDS011;60945;48.516;-2.768;2023-09-30T09:59:46;13.02;;;11.90;;
72813;SDS011;60945;48.516;-2.768;2023-09-30T10:02:13;13.88;;;12.65;;
72813;SDS011;60945;48.516;-2.768;2023-09-30T10:04:43;13.30;;;12.15;;
72813;SDS011;60945;48.516;-2.768;2023-09-30T10:07:20;14.05;;;12.75;;
72813;SDS011;60945;48.516;-2.768;2023-09-30T10:09:52;13.55;;;12.40;;
72813;SDS011;60945;48.516;-2.768;2023-09-30T10:12:20;13.23;;;11.93;;
72813;SDS011;60945;48.516;-2.768;2023-09-30T10:14:46;13.75;;;12.30;;
72813;SDS011;60945;48.516;-2.768;2023-09-30T10:17:16;14.07;;;12.77;;
72813;SDS011;60945;48.516;-2.768;2023-09-30T10:25:00;14.30;;;12.93;;
72813;SDS011;60945;48.516;-2.768;2023-09-30T10:35:15;13.02;;;11.77;;
72813;SDS011;60945;48.516;-2.768;2023-09-30T10:37:45;13.82;;;12.02;;
72813;SDS011;60945;48.516;-2.768;2023-09-30T10:40:26;16.02;;;11.35;;
72813;SDS011;60945;48.516;-2.768;2023-09-30T10:42:52;14.93;;;10.93;;
72813;SDS011;60945;48.516;-2.768;2023-09-30T10:50:54;13.05;;;11.75;;
72813;SDS011;60945;48.516;-2.768;2023-09-30T10:53:22;16.15;;;12.32;;
72813;SDS011;60945;48.516;-2.768;2023-09-30T10:55:54;12.68;;;11.38;;
72813;SDS011;60945;48.516;-2.768;2023-09-30T10:58:21;12.40;;;11.15;;
72813;SDS011;60945;48.516;-2.768;2023-09-30T11:00:53;15.25;;;11.75;;
72813;SDS011;60945;48.516;-2.768;2023-09-30T11:03:20;13.15;;;11.77;;
72813;SDS011;60945;48.516;-2.768;2023-09-30T11:05:50;12.32;;;11.02;;
72813;SDS011;60945;48.516;-2.768;2023-09-30T11:08:20;12.68;;;11.40;;
72813;SDS011;60945;48.516;-2.768;2023-09-30T11:10:50;12.18;;;10.77;;
72813;SDS011;60945;48.516;-2.768;2023-09-30T11:13:19;12.70;;;11.18;;
72813;SDS011;60945;48.516;-2.768;2023-09-30T11:15:45;14.13;;;11.18;;
72813;SDS011;60945;48.516;-2.768;2023-09-30T11:18:15;12.80;;;11.50;;
72813;SDS011;60945;48.516;-2.768;2023-09-30T11:20:42;15.88;;;11.80;;
72813;SDS011;60945;48.516;-2.768;2023-09-30T11:23:09;14.23;;;11.13;;
72813;SDS011;60945;48.516;-2.768;2023-09-30T11:25:39;13.10;;;11.73;;
72813;SDS011;60945;48.516;-2.768;2023-09-30T11:28:15;11.98;;;10.55;;
72813;SDS011;60945;48.516;-2.768;2023-09-30T11:30:58;13.32;;;10.65;;
72813;SDS011;60945;48.516;-2.768;2023-09-30T11:33:24;12.20;;;11.00;;
72813;SDS011;60945;48.516;-2.768;2023-09-30T11:36:00;12.82;;;11.38;;
72813;SDS011;60945;48.516;-2.768;2023-09-30T11:38:28;15.98;;;11.25;;
72813;SDS011;60945;48.516;-2.768;2023-09-30T11:40:58;11.75;;;9.55;;
72813;SDS011;60945;48.516;-2.768;2023-09-30T11:43:30;11.38;;;9.63;;
72813;SDS011;60945;48.516;-2.768;2023-09-30T11:46:10;12.23;;;10.88;;
72813;SDS011;60945;48.516;-2.768;2023-09-30T11:48:55;12.77;;;10.60;;
72813;SDS011;60945;48.516;-2.768;2023-09-30T11:51:23;12.82;;;10.73;;
72813;SDS011;60945;48.516;-2.768;2023-09-30T11:53:52;14.73;;;10.93;;
72813;SDS011;60945;48.516;-2.768;2023-09-30T11:56:18;12.68;;;11.32;;
72813;SDS011;60945;48.516;-2.768;2023-09-30T11:58:44;12.10;;;10.90;;
72813;SDS011;60945;48.516;-2.768;2023-09-30T12:01:11;15.00;;;11.80;;
72813;SDS011;60945;48.516;-2.768;2023-09-30T12:03:39;12.88;;;11.52;;
72813;SDS011;60945;48.516;-2.768;2023-09-30T12:06:08;12.00;;;10.80;;
72813;SDS011;60945;48.516;-2.768;2023-09-30T12:08:38;13.52;;;11.85;;
72813;SDS011;60945;48.516;-2.768;2023-09-30T12:11:05;14.43;;;11.70;;
72813;SDS011;60945;48.516;-2.768;2023-09-30T12:13:31;16.08;;;11.43;;
72813;SDS011;60945;48.516;-2.768;2023-09-30T12:15:56;13.05;;;11.00;;
72813;SDS011;60945;48.516;-2.768;2023-09-30T12:18:22;12.95;;;11.85;;
72813;SDS011;60945;48.516;-2.768;2023-09-30T12:20:49;14.23;;;11.90;;
72813;SDS011;60945;48.516;-2.768;2023-09-30T12:23:17;13.10;;;12.00;;
72813;SDS011;60945;48.516;-2.768;2023-09-30T12:25:43;14.73;;;11.77;;
72813;SDS011;60945;48.516;-2.768;2023-09-30T12:28:09;12.52;;;11.20;;
72813;SDS011;60945;48.516;-2.768;2023-09-30T12:30:35;14.00;;;12.05;;
72813;SDS011;60945;48.516;-2.768;2023-09-30T12:33:01;12.93;;;11.68;;
72813;SDS011;60945;48.516;-2.768;2023-09-30T12:35:27;13.65;;;12.25;;
72813;SDS011;60945;48.516;-2.768;2023-09-30T12:37:52;12.25;;;11.13;;
72813;SDS011;60945;48.516;-2.768;2023-09-30T12:40:18;18.35;;;11.93;;
72813;SDS011;60945;48.516;-2.768;2023-09-30T12:42:44;12.88;;;11.57;;
72813;SDS011;60945;48.516;-2.768;2023-09-30T12:45:10;13.63;;;11.68;;
72813;SDS011;60945;48.516;-2.768;2023-09-30T12:47:37;13.10;;;11.73;;
72813;SDS011;60945;48.516;-2.768;2023-09-30T12:50:03;13.48;;;12.07;;
72813;SDS011;60945;48.516;-2.768;2023-09-30T12:52:29;13.95;;;12.63;;
72813;SDS011;60945;48.516;-2.768;2023-09-30T12:54:57;14.50;;;12.25;;
72813;SDS011;60945;48.516;-2.768;2023-09-30T12:57:23;14.02;;;11.80;;
72813;SDS011;60945;48.516;-2.768;2023-09-30T12:59:48;15.15;;;12.05;;
72813;SDS011;60945;48.516;-2.768;2023-09-30T13:02:15;15.15;;;12.45;;
72813;SDS011;60945;48.516;-2.768;2023-09-30T13:04:41;13.73;;;12.05;;
72813;SDS011;60945;48.516;-2.768;2023-09-30T13:07:09;13.00;;;11.63;;
72813;SDS011;60945;48.516;-2.768;2023-09-30T13:09:35;12.60;;;11.40;;
72813;SDS011;60945;48.516;-2.768;2023-09-30T13:12:02;13.32;;;11.75;;
72813;SDS011;60945;48.516;-2.768;2023-09-30T13:14:28;14.05;;;11.70;;
72813;SDS011;60945;48.516;-2.768;2023-09-30T13:16:54;13.80;;;12.18;;
72813;SDS011;60945;48.516;-2.768;2023-09-30T13:19:20;13.77;;;12.45;;
72813;SDS011;60945;48.516;-2.768;2023-09-30T13:21:49;14.85;;;13.50;;
72813;SDS011;60945;48.516;-2.768;2023-09-30T13:24:21;15.30;;;13.63;;
72813;SDS011;60945;48.516;-2.768;2023-09-30T13:26:47;14.25;;;12.93;;
72813;SDS011;60945;48.516;-2.768;2023-09-30T13:29:13;14.05;;;12.85;;
72813;SDS011;60945;48.516;-2.768;2023-09-30T13:31:41;15.40;;;14.13;;
72813;SDS011;60945;48.516;-2.768;2023-09-30T13:34:07;15.52;;;14.23;;
72813;SDS011;60945;48.516;-2.768;2023-09-30T13:36:33;15.68;;;14.38;;
72813;SDS011;60945;48.516;-2.768;2023-09-30T13:38:59;16.02;;;14.70;;
72813;SDS011;60945;48.516;-2.768;2023-09-30T13:41:26;15.82;;;14.52;;
72813;SDS011;60945;48.516;-2.768;2023-09-30T13:43:52;15.38;;;14.18;;
72813;SDS011;60945;48.516;-2.768;2023-09-30T13:46:18;16.88;;;15.32;;
72813;SDS011;60945;48.516;-2.768;2023-09-30T13:48:43;15.80;;;14.50;;
72813;SDS011;60945;48.516;-2.768;2023-09-30T13:51:09;15.43;;;13.85;;
72813;SDS011;60945;48.516;-2.768;2023-09-30T13:53:35;16.50;;;15.07;;
72813;SDS011;60945;48.516;-2.768;2023-09-30T13:56:01;16.40;;;15.10;;
72813;SDS011;60945;48.516;-2.768;2023-09-30T13:58:30;15.83;;;14.53;;
72813;SDS011;60945;48.516;-2.768;2023-09-30T14:00:56;16.30;;;15.10;;
72813;SDS011;60945;48.516;-2.768;2023-09-30T14:03:22;17.08;;;15.88;;
72813;SDS011;60945;48.516;-2.768;2023-09-30T14:05:51;17.80;;;16.38;;
72813;SDS011;60945;48.516;-2.768;2023-09-30T14:08:18;16.67;;;15.48;;
72813;SDS011;60945;48.516;-2.768;2023-09-30T14:10:44;16.48;;;15.27;;
72813;SDS011;60945;48.516;-2.768;2023-09-30T14:13:10;16.17;;;14.98;;
72813;SDS011;60945;48.516;-2.768;2023-09-30T14:15:36;17.30;;;15.82;;
72813;SDS011;60945;48.516;-2.768;2023-09-30T14:18:02;16.20;;;14.90;;
72813;SDS011;60945;48.516;-2.768;2023-09-30T14:20:28;16.23;;;14.95;;
72813;SDS011;60945;48.516;-2.768;2023-09-30T14:22:54;16.90;;;15.70;;
72813;SDS011;60945;48.516;-2.768;2023-09-30T14:25:22;16.23;;;14.93;;
72813;SDS011;60945;48.516;-2.768;2023-09-30T14:27:48;16.73;;;15.32;;
72813;SDS011;60945;48.516;-2.768;2023-09-30T14:30:14;16.20;;;14.90;;
72813;SDS011;60945;48.516;-2.768;2023-09-30T14:32:41;16.35;;;15.25;;